Time;durP1;ratioP1;P1;durP2;ratioP2;P2;SDS_P1;SDS_P2;PMS_P1;PMS_P2;Temp;Humidity;BMP_temperature;BMP_pressure;BME280_temperature;BME280_humidity;BME280_pressure;Samples;Min_cycle;Max_cycle;Signal;HPM_P1;HPM_P2
2022/12/18 00:01:19;;;;;;;;;59.33;48.00;;;;;;;;5042021;28;62259;-75
2022/12/18 00:03:44;;;;;;;;;57.33;43.33;;;;;;;;5043480;28;61792;-75
2022/12/18 00:06:09;;;;;;;;;65.00;48.00;;;;;;;;5042533;28;62022;-75
2022/12/18 00:08:35;;;;;;;;;64.67;48.33;;;;;;;;5041845;28;61868;-74
2022/12/18 00:11:04;;;;;;;;;62.67;46.67;;;;;;;;5042066;28;62347;-75
2022/12/18 00:13:29;;;;;;;;;60.67;43.00;;;;;;;;5043480;28;62149;-75
2022/12/18 00:15:54;;;;;;;;;36.67;32.67;;;;;;;;5042432;28;62613;-74
2022/12/18 00:18:20;;;;;;;;;65.33;40.00;;;;;;;;5041830;28;61773;-74
2022/12/18 00:20:45;;;;;;;;;74.67;54.67;;;;;;;;5042671;28;61842;-74
2022/12/18 00:23:10;;;;;;;;;70.33;47.67;;;;;;;;5037790;28;61872;-74
2022/12/18 00:25:36;;;;;;;;;85.67;62.00;;;;;;;;5034154;28;63579;-74
2022/12/18 00:28:02;;;;;;;;;65.33;49.67;;;;;;;;5040108;28;61903;-77
2022/12/18 00:30:27;;;;;;;;;75.67;55.67;;;;;;;;5021557;28;61828;-74
2022/12/18 00:32:52;;;;;;;;;62.67;45.33;;;;;;;;5035162;28;61690;-75
2022/12/18 00:35:18;;;;;;;;;68.00;46.33;;;;;;;;5042218;28;62639;-74
2022/12/18 00:37:43;;;;;;;;;70.67;48.00;;;;;;;;5024143;28;61648;-75
2022/12/18 00:40:09;;;;;;;;;51.00;42.33;;;;;;;;5022791;28;61761;-75
2022/12/18 00:45:18;;;;;;;;;46.33;40.00;;;;;;;;5022183;28;62348;-74
2022/12/18 00:47:43;;;;;;;;;47.33;42.33;;;;;;;;5022518;28;61689;-74
2022/12/18 00:50:09;;;;;;;;;48.33;40.00;;;;;;;;5022501;28;61781;-74
2022/12/18 00:52:34;;;;;;;;;51.33;39.67;;;;;;;;5038174;28;61900;-74
2022/12/18 00:54:59;;;;;;;;;59.00;36.67;;;;;;;;5037100;28;63580;-74
2022/12/18 00:57:25;;;;;;;;;51.67;39.00;;;;;;;;5022391;28;61880;-74
2022/12/18 00:59:50;;;;;;;;;47.67;34.33;;;;;;;;5022448;28;61695;-74
2022/12/18 01:02:15;;;;;;;;;50.33;34.67;;;;;;;;5022733;28;61896;-74
2022/12/18 01:04:40;;;;;;;;;42.67;34.00;;;;;;;;5037046;28;63713;-74
2022/12/18 01:07:05;;;;;;;;;40.33;36.33;;;;;;;;5022254;28;61764;-74
2022/12/18 01:09:31;;;;;;;;;41.67;33.33;;;;;;;;5022426;28;61754;-74
2022/12/18 01:11:56;;;;;;;;;51.67;36.67;;;;;;;;5022286;28;61807;-74
2022/12/18 01:14:21;;;;;;;;;44.33;38.67;;;;;;;;5021780;28;61871;-74
2022/12/18 01:16:47;;;;;;;;;59.33;39.33;;;;;;;;5022388;28;62075;-74
2022/12/18 01:19:12;;;;;;;;;34.67;30.00;;;;;;;;5022020;28;61868;-74
2022/12/18 01:21:37;;;;;;;;;47.00;36.00;;;;;;;;5020813;28;62159;-74
2022/12/18 01:24:03;;;;;;;;;41.33;34.00;;;;;;;;5036736;28;61910;-75
2022/12/18 01:26:29;;;;;;;;;54.67;41.67;;;;;;;;5041918;28;61856;-74
2022/12/18 01:28:56;;;;;;;;;51.33;36.67;;;;;;;;5042086;28;62164;-75
2022/12/18 01:31:23;;;;;;;;;41.67;39.33;;;;;;;;5042449;28;62231;-74
2022/12/18 01:33:49;;;;;;;;;42.00;34.00;;;;;;;;5041530;28;63873;-74
2022/12/18 01:36:23;;;;;;;;;49.67;40.67;;;;;;;;5041790;28;61743;-74
2022/12/18 01:38:48;;;;;;;;;46.67;38.33;;;;;;;;5040597;28;62007;-74
2022/12/18 01:41:15;;;;;;;;;36.33;32.33;;;;;;;;5041068;28;61753;-74
2022/12/18 01:43:41;;;;;;;;;42.67;31.67;;;;;;;;5041488;28;63542;-75
2022/12/18 01:46:06;;;;;;;;;49.33;35.33;;;;;;;;5040241;28;61647;-75
2022/12/18 01:48:32;;;;;;;;;40.00;33.33;;;;;;;;5040662;28;61792;-75
2022/12/18 01:50:57;;;;;;;;;51.67;33.33;;;;;;;;5041686;28;62086;-74
2022/12/18 01:53:23;;;;;;;;;35.33;27.33;;;;;;;;5040901;28;62182;-74
2022/12/18 01:55:52;;;;;;;;;35.00;22.67;;;;;;;;5041723;28;61933;-75
2022/12/18 01:58:19;;;;;;;;;34.67;27.67;;;;;;;;5041686;28;62156;-75
2022/12/18 02:00:45;;;;;;;;;26.67;24.33;;;;;;;;5040668;28;62153;-74
2022/12/18 02:03:10;;;;;;;;;45.00;35.67;;;;;;;;5039750;28;63455;-75
2022/12/18 02:05:35;;;;;;;;;41.33;31.67;;;;;;;;5040237;28;61873;-74
2022/12/18 02:08:00;;;;;;;;;35.33;26.33;;;;;;;;5041638;28;61880;-75
2022/12/18 02:10:26;;;;;;;;;40.33;32.33;;;;;;;;5040151;28;61861;-75
2022/12/18 02:12:54;;;;;;;;;46.67;30.33;;;;;;;;5039721;28;64610;-74
2022/12/18 02:15:35;;;;;;;;;38.67;31.00;;;;;;;;5041444;28;61812;-74
2022/12/18 02:18:11;;;;;;;;;38.00;28.67;;;;;;;;5040224;28;62331;-76
2022/12/18 02:20:44;;;;;;;;;37.33;28.33;;;;;;;;5041346;28;61862;-74
2022/12/18 02:23:14;;;;;;;;;52.00;28.67;;;;;;;;5040578;28;62143;-75
2022/12/18 02:25:58;;;;;;;;;36.67;28.00;;;;;;;;5041286;28;62060;-75
2022/12/18 02:28:26;;;;;;;;;31.67;24.00;;;;;;;;5041442;28;62077;-74
2022/12/18 02:30:53;;;;;;;;;37.00;30.00;;;;;;;;5041544;28;61905;-74
2022/12/18 02:33:19;;;;;;;;;33.00;27.67;;;;;;;;5040708;28;61933;-74
2022/12/18 02:35:45;;;;;;;;;50.33;34.33;;;;;;;;5041375;28;62350;-75
2022/12/18 02:38:11;;;;;;;;;44.33;30.33;;;;;;;;5041070;28;61895;-74
2022/12/18 02:40:38;;;;;;;;;45.00;33.67;;;;;;;;5041416;28;61763;-74
2022/12/18 02:43:07;;;;;;;;;45.33;32.33;;;;;;;;5040861;28;62099;-74
2022/12/18 02:45:33;;;;;;;;;52.67;38.33;;;;;;;;5039731;28;62012;-75
2022/12/18 02:47:58;;;;;;;;;39.00;35.33;;;;;;;;5041261;28;61710;-74
2022/12/18 02:50:30;;;;;;;;;43.67;30.33;;;;;;;;5056527;28;61702;-74
2022/12/18 02:52:59;;;;;;;;;35.00;28.00;;;;;;;;5041938;28;64951;-74
2022/12/18 02:55:27;;;;;;;;;43.67;32.33;;;;;;;;5059549;28;61978;-74
2022/12/18 02:58:04;;;;;;;;;47.33;35.67;;;;;;;;5060118;28;62317;-74
2022/12/18 03:00:29;;;;;;;;;44.33;31.67;;;;;;;;5044648;28;61839;-74
2022/12/18 03:03:02;;;;;;;;;42.33;33.67;;;;;;;;5059319;28;63673;-74
2022/12/18 03:05:31;;;;;;;;;47.33;34.67;;;;;;;;5042656;28;61801;-74
2022/12/18 03:07:58;;;;;;;;;45.67;36.33;;;;;;;;5044387;28;61879;-74
2022/12/18 03:10:27;;;;;;;;;39.33;27.00;;;;;;;;5044349;28;62463;-75
2022/12/18 03:13:12;;;;;;;;;44.33;29.33;;;;;;;;5043841;28;62842;-74
2022/12/18 03:15:49;;;;;;;;;54.00;32.33;;;;;;;;5042314;28;61812;-74
2022/12/18 03:18:19;;;;;;;;;42.00;30.33;;;;;;;;5042890;28;61831;-74
2022/12/18 03:20:46;;;;;;;;;45.67;30.00;;;;;;;;5044054;28;61692;-75
2022/12/18 03:23:16;;;;;;;;;50.00;31.00;;;;;;;;5037958;28;61757;-74
2022/12/18 03:25:44;;;;;;;;;35.67;34.33;;;;;;;;5024108;28;61757;-74
2022/12/18 03:28:14;;;;;;;;;43.33;33.33;;;;;;;;5024126;28;61655;-74
2022/12/18 03:30:41;;;;;;;;;27.33;24.33;;;;;;;;5024037;28;61881;-74
2022/12/18 03:33:06;;;;;;;;;35.67;21.33;;;;;;;;5023785;28;62924;-74
2022/12/18 03:35:36;;;;;;;;;49.33;37.67;;;;;;;;5023969;28;61808;-74
2022/12/18 03:38:01;;;;;;;;;38.33;31.00;;;;;;;;5023649;28;61707;-74
2022/12/18 03:40:33;;;;;;;;;44.33;36.00;;;;;;;;5024034;28;61762;-74
2022/12/18 03:43:03;;;;;;;;;40.67;32.00;;;;;;;;5023385;28;63030;-74
2022/12/18 03:45:34;;;;;;;;;51.00;31.00;;;;;;;;5022201;28;62123;-75
2022/12/18 03:48:26;;;;;;;;;41.33;33.67;;;;;;;;5022390;28;61808;-74
2022/12/18 03:50:57;;;;;;;;;41.33;33.33;;;;;;;;5022542;28;62222;-74
2022/12/18 03:53:26;;;;;;;;;36.00;27.67;;;;;;;;5022658;28;61674;-74
2022/12/18 03:55:52;;;;;;;;;61.67;37.00;;;;;;;;5023604;28;61923;-74
2022/12/18 03:58:20;;;;;;;;;43.00;33.33;;;;;;;;5023779;28;61933;-74
2022/12/18 04:00:47;;;;;;;;;44.33;31.67;;;;;;;;5022136;28;61789;-74
2022/12/18 04:03:13;;;;;;;;;41.67;33.67;;;;;;;;5022457;28;62131;-74
2022/12/18 04:05:40;;;;;;;;;46.33;37.00;;;;;;;;5023025;28;62067;-74
2022/12/18 04:08:05;;;;;;;;;41.67;28.00;;;;;;;;5023246;28;61834;-74
2022/12/18 04:10:30;;;;;;;;;31.00;28.67;;;;;;;;5023671;28;61799;-74
2022/12/18 04:12:57;;;;;;;;;34.67;32.33;;;;;;;;5021364;28;63936;-74
2022/12/18 04:15:22;;;;;;;;;50.33;35.00;;;;;;;;5023340;28;62031;-74
2022/12/18 04:17:48;;;;;;;;;39.67;32.67;;;;;;;;5021825;28;61938;-74
2022/12/18 04:20:13;;;;;;;;;38.33;28.00;;;;;;;;5023300;28;61792;-75
2022/12/18 04:22:38;;;;;;;;;38.67;32.33;;;;;;;;5025569;28;62178;-74
2022/12/18 04:25:04;;;;;;;;;43.00;32.67;;;;;;;;5023298;28;62026;-74
2022/12/18 04:27:29;;;;;;;;;42.33;36.00;;;;;;;;5023087;28;61850;-74
2022/12/18 04:29:55;;;;;;;;;46.33;39.00;;;;;;;;5023323;28;61903;-74
2022/12/18 04:32:20;;;;;;;;;44.67;31.67;;;;;;;;5021260;28;63700;-74
2022/12/18 04:34:45;;;;;;;;;36.67;24.67;;;;;;;;5021529;28;62508;-74
2022/12/18 04:37:11;;;;;;;;;43.67;31.33;;;;;;;;5022852;28;61908;-74
2022/12/18 04:39:36;;;;;;;;;31.33;27.67;;;;;;;;5023057;28;61741;-74
2022/12/18 04:42:01;;;;;;;;;37.33;32.33;;;;;;;;5022306;28;61683;-74
2022/12/18 04:44:27;;;;;;;;;31.67;29.33;;;;;;;;5022825;28;61827;-74
2022/12/18 04:46:52;;;;;;;;;33.67;30.67;;;;;;;;5022708;28;62093;-74
2022/12/18 04:49:17;;;;;;;;;21.33;19.00;;;;;;;;5022850;28;62005;-74
2022/12/18 04:51:42;;;;;;;;;37.67;33.33;;;;;;;;5020871;28;63945;-74
2022/12/18 04:54:08;;;;;;;;;37.00;33.33;;;;;;;;5022511;28;62286;-74
2022/12/18 04:56:33;;;;;;;;;27.33;25.67;;;;;;;;5022924;28;61898;-74
2022/12/18 04:58:58;;;;;;;;;34.00;27.00;;;;;;;;5022617;28;61766;-74
2022/12/18 05:01:23;;;;;;;;;40.33;36.67;;;;;;;;5020866;28;63880;-74
2022/12/18 05:03:50;;;;;;;;;38.00;26.67;;;;;;;;5020880;28;62127;-73
2022/12/18 05:06:15;;;;;;;;;38.33;33.33;;;;;;;;5021255;28;61806;-74
2022/12/18 05:08:41;;;;;;;;;41.00;27.33;;;;;;;;5022538;28;61957;-74
2022/12/18 05:11:07;;;;;;;;;36.33;30.33;;;;;;;;5021971;28;62585;-74
2022/12/18 05:13:33;;;;;;;;;45.33;35.33;;;;;;;;5022691;28;61952;-74
2022/12/18 05:15:58;;;;;;;;;50.67;33.67;;;;;;;;5021135;28;62186;-74
2022/12/18 05:18:24;;;;;;;;;33.33;29.33;;;;;;;;5022669;28;61895;-74
2022/12/18 05:20:51;;;;;;;;;38.33;27.00;;;;;;;;5021164;28;61974;-74
2022/12/18 05:23:16;;;;;;;;;42.00;32.33;;;;;;;;5025944;28;61830;-74
2022/12/18 05:25:41;;;;;;;;;37.67;35.67;;;;;;;;5022382;28;61960;-74
2022/12/18 05:28:07;;;;;;;;;40.33;34.67;;;;;;;;5021048;28;62014;-74
2022/12/18 05:30:32;;;;;;;;;45.67;35.33;;;;;;;;5021646;28;61936;-74
2022/12/18 05:32:57;;;;;;;;;17.33;9.33;;;;;;;;5020410;28;62105;-74
2022/12/18 05:35:22;;;;;;;;;38.00;28.00;;;;;;;;5022269;28;61845;-74
2022/12/18 05:37:48;;;;;;;;;38.33;31.67;;;;;;;;5022121;28;61923;-74
2022/12/18 05:40:13;;;;;;;;;28.67;27.67;;;;;;;;5021429;28;62613;-74
2022/12/18 05:42:38;;;;;;;;;47.33;34.00;;;;;;;;5022126;28;61896;-75
2022/12/18 05:45:04;;;;;;;;;42.00;30.00;;;;;;;;5021824;28;61898;-74
2022/12/18 05:47:30;;;;;;;;;37.67;31.00;;;;;;;;5022051;28;61925;-74
2022/12/18 05:49:55;;;;;;;;;39.33;36.00;;;;;;;;5021098;28;61774;-73
2022/12/18 05:52:20;;;;;;;;;34.00;27.00;;;;;;;;5020124;28;61927;-74
2022/12/18 05:54:46;;;;;;;;;47.33;36.00;;;;;;;;5021999;28;61729;-73
2022/12/18 05:57:11;;;;;;;;;37.67;29.33;;;;;;;;5022064;28;61781;-74
2022/12/18 05:59:36;;;;;;;;;38.33;29.33;;;;;;;;5021329;28;61912;-74
2022/12/18 06:02:02;;;;;;;;;39.67;30.33;;;;;;;;5021454;28;62162;-73
2022/12/18 06:04:30;;;;;;;;;50.00;33.67;;;;;;;;5021881;28;62071;-74
2022/12/18 06:06:55;;;;;;;;;46.67;32.67;;;;;;;;5020357;28;61710;-74
2022/12/18 06:09:21;;;;;;;;;38.00;31.33;;;;;;;;5021061;28;61953;-74
2022/12/18 06:11:46;;;;;;;;;38.33;27.67;;;;;;;;5020590;28;61812;-73
2022/12/18 06:14:11;;;;;;;;;49.33;30.67;;;;;;;;5021315;28;61782;-73
2022/12/18 06:16:36;;;;;;;;;44.33;30.67;;;;;;;;5021510;28;61738;-73
2022/12/18 06:19:03;;;;;;;;;34.67;26.67;;;;;;;;5020731;28;61718;-74
2022/12/18 06:21:29;;;;;;;;;44.67;31.67;;;;;;;;5021390;28;62036;-73
2022/12/18 06:23:54;;;;;;;;;33.67;29.00;;;;;;;;5023852;28;61995;-73
2022/12/18 06:26:20;;;;;;;;;41.33;28.00;;;;;;;;5021958;28;62161;-73
2022/12/18 06:28:45;;;;;;;;;51.33;34.67;;;;;;;;5024350;28;61959;-73
2022/12/18 06:31:10;;;;;;;;;43.00;34.67;;;;;;;;5025352;28;62134;-73
2022/12/18 06:33:36;;;;;;;;;29.33;25.67;;;;;;;;5025196;28;62133;-73
2022/12/18 06:36:09;;;;;;;;;34.33;25.00;;;;;;;;5024828;28;61904;-73
2022/12/18 06:38:35;;;;;;;;;38.33;28.67;;;;;;;;5024251;28;61863;-73
2022/12/18 06:41:00;;;;;;;;;38.67;28.67;;;;;;;;5024667;28;61951;-74
2022/12/18 06:43:26;;;;;;;;;50.67;39.00;;;;;;;;5024778;28;61957;-73
2022/12/18 06:45:52;;;;;;;;;41.67;28.67;;;;;;;;5024741;28;61894;-74
2022/12/18 06:48:21;;;;;;;;;40.00;31.00;;;;;;;;5023806;28;61865;-75
2022/12/18 06:50:46;;;;;;;;;34.67;27.00;;;;;;;;5024573;28;62693;-73
2022/12/18 06:53:12;;;;;;;;;37.33;31.33;;;;;;;;5024593;28;62146;-74
2022/12/18 06:55:37;;;;;;;;;45.67;29.67;;;;;;;;5024692;28;61912;-75
2022/12/18 06:58:02;;;;;;;;;33.67;28.67;;;;;;;;5022677;28;63950;-75
2022/12/18 07:00:28;;;;;;;;;42.67;33.00;;;;;;;;5024274;28;61773;-75
2022/12/18 07:02:53;;;;;;;;;36.33;30.00;;;;;;;;5024453;28;61930;-74
2022/12/18 07:05:18;;;;;;;;;34.33;30.00;;;;;;;;5023087;28;62267;-74
2022/12/18 07:07:43;;;;;;;;;39.67;30.67;;;;;;;;5022465;28;64828;-75
2022/12/18 07:10:09;;;;;;;;;30.33;29.00;;;;;;;;5024212;28;61897;-73
2022/12/18 07:12:34;;;;;;;;;33.33;28.00;;;;;;;;5024380;28;61929;-75
2022/12/18 07:15:00;;;;;;;;;38.33;29.33;;;;;;;;5024378;28;61994;-75
2022/12/18 07:17:25;;;;;;;;;38.33;29.00;;;;;;;;5023561;28;61897;-75
2022/12/18 07:19:50;;;;;;;;;44.67;33.00;;;;;;;;5023777;28;62219;-75
2022/12/18 07:22:15;;;;;;;;;39.00;28.67;;;;;;;;5024982;28;62091;-75
2022/12/18 07:24:41;;;;;;;;;13.00;8.67;;;;;;;;5026923;28;61806;-76
2022/12/18 07:27:06;;;;;;;;;32.67;26.67;;;;;;;;5023471;28;61765;-77
2022/12/18 07:29:31;;;;;;;;;37.33;24.67;;;;;;;;5022534;28;62043;-76
2022/12/18 07:31:56;;;;;;;;;45.00;30.33;;;;;;;;5024219;28;62236;-76
2022/12/18 07:34:22;;;;;;;;;34.00;27.33;;;;;;;;5024023;28;61860;-77
2022/12/18 07:36:47;;;;;;;;;37.67;24.67;;;;;;;;5023546;28;61838;-77
2022/12/18 07:39:12;;;;;;;;;56.67;32.00;;;;;;;;5022877;28;62186;-76
2022/12/18 07:41:38;;;;;;;;;33.67;26.33;;;;;;;;5023961;28;62040;-77
2022/12/18 07:44:03;;;;;;;;;33.67;28.67;;;;;;;;5022602;28;61844;-76
2022/12/18 07:46:29;;;;;;;;;48.33;37.00;;;;;;;;5023072;28;61871;-76
2022/12/18 07:48:54;;;;;;;;;33.00;27.00;;;;;;;;5022169;28;61739;-77
2022/12/18 07:51:19;;;;;;;;;35.67;31.00;;;;;;;;5038737;28;62177;-76
2022/12/18 07:53:44;;;;;;;;;37.67;30.00;;;;;;;;5042637;28;62495;-76
2022/12/18 07:56:11;;;;;;;;;28.67;26.67;;;;;;;;5042194;28;62744;-75
2022/12/18 07:58:37;;;;;;;;;32.67;30.33;;;;;;;;5041180;28;62130;-76
2022/12/18 08:01:06;;;;;;;;;40.67;31.00;;;;;;;;5041664;28;61908;-76
2022/12/18 08:03:31;;;;;;;;;49.33;33.33;;;;;;;;5042759;28;62249;-76
2022/12/18 08:06:03;;;;;;;;;44.00;33.33;;;;;;;;5042223;28;61869;-76
2022/12/18 08:08:28;;;;;;;;;39.00;29.33;;;;;;;;5042609;28;61987;-76
2022/12/18 08:10:54;;;;;;;;;37.33;31.00;;;;;;;;5041546;28;61882;-77
2022/12/18 08:13:19;;;;;;;;;32.33;28.33;;;;;;;;5041182;28;61828;-76
2022/12/18 08:15:44;;;;;;;;;33.00;29.33;;;;;;;;5040706;28;63609;-76
2022/12/18 08:18:10;;;;;;;;;37.33;33.67;;;;;;;;5042609;28;62074;-76
2022/12/18 08:20:35;;;;;;;;;32.33;28.00;;;;;;;;5042284;28;62016;-75
2022/12/18 08:23:00;;;;;;;;;45.67;29.33;;;;;;;;5041524;28;62163;-76
2022/12/18 08:25:25;;;;;;;;;43.33;30.33;;;;;;;;5042067;28;62838;-75
2022/12/18 08:27:51;;;;;;;;;35.00;34.33;;;;;;;;5042181;28;61884;-76
2022/12/18 08:30:16;;;;;;;;;34.33;24.67;;;;;;;;5042398;28;62097;-76
2022/12/18 08:32:41;;;;;;;;;23.33;18.00;;;;;;;;5040771;28;61870;-76
2022/12/18 08:35:08;;;;;;;;;37.00;30.67;;;;;;;;5042544;28;62044;-76
2022/12/18 08:37:33;;;;;;;;;42.00;32.67;;;;;;;;5041423;28;61996;-75
2022/12/18 08:39:58;;;;;;;;;45.00;33.67;;;;;;;;5041604;28;61727;-75
2022/12/18 08:45:08;;;;;;;;;38.00;31.00;;;;;;;;5041859;28;61785;-78
2022/12/18 08:47:33;;;;;;;;;49.33;36.00;;;;;;;;5042891;28;62080;-75
2022/12/18 08:49:58;;;;;;;;;50.00;33.67;;;;;;;;5042329;28;61935;-74
2022/12/18 08:52:24;;;;;;;;;48.67;29.33;;;;;;;;5041022;28;61983;-75
2022/12/18 08:54:49;;;;;;;;;39.67;30.67;;;;;;;;5039584;28;61823;-74
2022/12/18 08:57:14;;;;;;;;;40.00;31.67;;;;;;;;5041640;28;61915;-75
2022/12/18 08:59:40;;;;;;;;;37.33;31.00;;;;;;;;5040828;28;62384;-75
2022/12/18 09:02:05;;;;;;;;;49.00;34.00;;;;;;;;5041925;28;61985;-75
2022/12/18 09:04:31;;;;;;;;;38.33;34.67;;;;;;;;5040627;28;63044;-74
2022/12/18 09:07:03;;;;;;;;;33.33;27.67;;;;;;;;5039209;28;61877;-74
2022/12/18 09:09:29;;;;;;;;;41.00;29.33;;;;;;;;5038964;28;61898;-75
2022/12/18 09:11:54;;;;;;;;;41.67;34.00;;;;;;;;5040913;28;61703;-75
2022/12/18 09:14:19;;;;;;;;;32.67;31.33;;;;;;;;5038795;28;64888;-75
2022/12/18 09:16:45;;;;;;;;;47.67;30.67;;;;;;;;5031725;28;61916;-75
2022/12/18 09:19:11;;;;;;;;;48.33;36.67;;;;;;;;5036291;28;61928;-74
2022/12/18 09:21:37;;;;;;;;;35.67;32.67;;;;;;;;5037996;28;61888;-73
2022/12/18 09:24:03;;;;;;;;;38.33;33.00;;;;;;;;5036331;28;62741;-75
2022/12/18 09:26:28;;;;;;;;;56.67;30.67;;;;;;;;5041275;28;61870;-75
2022/12/18 09:28:54;;;;;;;;;49.33;33.00;;;;;;;;5039886;28;61889;-74
2022/12/18 09:31:20;;;;;;;;;47.67;30.67;;;;;;;;5040252;28;61964;-75
2022/12/18 09:33:46;;;;;;;;;49.67;35.33;;;;;;;;5040841;28;62673;-74
2022/12/18 09:36:13;;;;;;;;;46.33;31.67;;;;;;;;5041319;28;61856;-74
2022/12/18 09:38:38;;;;;;;;;45.00;33.67;;;;;;;;5040473;28;62136;-74
2022/12/18 09:41:03;;;;;;;;;50.33;41.33;;;;;;;;5041423;28;62099;-75
2022/12/18 09:43:45;;;;;;;;;43.67;36.00;;;;;;;;5041188;28;62585;-74
2022/12/18 09:46:15;;;;;;;;;39.00;33.67;;;;;;;;5041077;28;61732;-75
2022/12/18 09:48:42;;;;;;;;;40.67;34.67;;;;;;;;5041081;28;61717;-74
2022/12/18 09:51:27;;;;;;;;;57.67;36.00;;;;;;;;5041004;28;61810;-73
2022/12/18 09:53:59;;;;;;;;;57.00;36.33;;;;;;;;5039774;28;61766;-76
2022/12/18 09:56:27;;;;;;;;;41.33;33.00;;;;;;;;5039464;28;61756;-75
2022/12/18 09:58:58;;;;;;;;;47.00;39.00;;;;;;;;5040920;28;61890;-75
2022/12/18 10:01:23;;;;;;;;;48.00;35.33;;;;;;;;5041967;28;61919;-75
2022/12/18 10:03:50;;;;;;;;;22.00;19.00;;;;;;;;5044110;28;62721;-75
2022/12/18 10:06:18;;;;;;;;;33.67;29.33;;;;;;;;5044296;28;61942;-76
2022/12/18 10:08:56;;;;;;;;;55.33;46.00;;;;;;;;5044423;28;61959;-76
2022/12/18 10:11:27;;;;;;;;;46.33;34.33;;;;;;;;5043185;28;61910;-76
2022/12/18 10:13:57;;;;;;;;;46.00;39.33;;;;;;;;5044814;28;61650;-74
2022/12/18 10:16:30;;;;;;;;;43.00;37.00;;;;;;;;5045454;28;61667;-75
2022/12/18 10:18:56;;;;;;;;;54.00;43.00;;;;;;;;5043592;28;61990;-74
2022/12/18 10:21:24;;;;;;;;;54.33;37.00;;;;;;;;5044738;28;61789;-75
2022/12/18 10:23:56;;;;;;;;;58.00;46.33;;;;;;;;5043671;28;62599;-75
2022/12/18 10:26:22;;;;;;;;;35.33;28.00;;;;;;;;5044601;28;61816;-75
2022/12/18 10:28:47;;;;;;;;;47.67;36.00;;;;;;;;5042928;28;61785;-75
2022/12/18 10:31:20;;;;;;;;;53.67;41.33;;;;;;;;5044150;28;62043;-74
2022/12/18 10:33:46;;;;;;;;;51.33;34.33;;;;;;;;5042173;28;63397;-76
2022/12/18 10:36:11;;;;;;;;;52.00;39.00;;;;;;;;5035797;28;61900;-75
2022/12/18 10:38:36;;;;;;;;;55.67;34.33;;;;;;;;5040188;28;61861;-74
2022/12/18 10:41:02;;;;;;;;;52.33;36.33;;;;;;;;5032115;28;61797;-74
2022/12/18 10:43:30;;;;;;;;;43.67;37.33;;;;;;;;5035244;28;63532;-75
2022/12/18 10:45:58;;;;;;;;;51.33;34.00;;;;;;;;5032950;28;61804;-73
2022/12/18 10:48:24;;;;;;;;;51.00;40.00;;;;;;;;5029252;28;61943;-75
2022/12/18 10:50:51;;;;;;;;;50.00;34.00;;;;;;;;5042694;28;61887;-74
2022/12/18 10:53:20;;;;;;;;;19.00;11.33;;;;;;;;5041836;28;63624;-76
2022/12/18 10:55:45;;;;;;;;;39.33;33.00;;;;;;;;5044052;28;61658;-75
2022/12/18 10:58:26;;;;;;;;;48.67;31.33;;;;;;;;5043662;28;61761;-74
2022/12/18 11:01:05;;;;;;;;;44.67;35.00;;;;;;;;5024951;28;61869;-74
2022/12/18 11:03:44;;;;;;;;;58.00;42.00;;;;;;;;5032238;28;61879;-74
2022/12/18 11:06:11;;;;;;;;;48.33;38.00;;;;;;;;5044053;28;62353;-74
2022/12/18 11:08:37;;;;;;;;;53.00;36.67;;;;;;;;5043903;28;62015;-74
2022/12/18 11:11:04;;;;;;;;;40.00;35.00;;;;;;;;5044137;28;61879;-74
2022/12/18 11:13:31;;;;;;;;;35.33;32.33;;;;;;;;5041365;28;64882;-73
2022/12/18 11:15:56;;;;;;;;;52.67;36.33;;;;;;;;5043946;28;61758;-74
2022/12/18 11:18:25;;;;;;;;;45.33;33.33;;;;;;;;5043411;28;62181;-74
2022/12/18 11:20:57;;;;;;;;;54.00;43.00;;;;;;;;5038737;28;62107;-76
2022/12/18 11:23:23;;;;;;;;;35.33;31.67;;;;;;;;5027666;28;62200;-74
2022/12/18 11:25:59;;;;;;;;;44.67;33.33;;;;;;;;5023933;28;62070;-76
2022/12/18 11:28:33;;;;;;;;;41.67;33.67;;;;;;;;5023721;28;61830;-76
2022/12/18 11:31:11;;;;;;;;;48.33;33.00;;;;;;;;5033889;28;62184;-75
2022/12/18 11:33:39;;;;;;;;;50.33;39.33;;;;;;;;5039617;28;63721;-76
2022/12/18 11:36:05;;;;;;;;;48.00;43.33;;;;;;;;5040948;28;62107;-75
2022/12/18 11:38:34;;;;;;;;;55.00;36.67;;;;;;;;5038558;28;61856;-74
2022/12/18 11:41:05;;;;;;;;;48.33;33.33;;;;;;;;5040358;28;62126;-75
2022/12/18 11:43:40;;;;;;;;;53.67;42.00;;;;;;;;5040889;28;62691;-75
2022/12/18 11:46:08;;;;;;;;;46.00;38.00;;;;;;;;5038698;28;61829;-74
2022/12/18 11:48:36;;;;;;;;;60.67;35.67;;;;;;;;5041835;28;61950;-75
2022/12/18 11:51:04;;;;;;;;;42.00;38.67;;;;;;;;5041553;28;61991;-75
2022/12/18 11:53:30;;;;;;;;;52.67;42.00;;;;;;;;5042514;28;63082;-75
2022/12/18 11:56:14;;;;;;;;;47.33;31.33;;;;;;;;5043499;28;61751;-75
2022/12/18 11:58:45;;;;;;;;;43.00;30.00;;;;;;;;5042115;28;61936;-75
2022/12/18 12:01:27;;;;;;;;;46.00;34.33;;;;;;;;5043770;28;61933;-75
2022/12/18 12:03:55;;;;;;;;;47.33;38.33;;;;;;;;5042570;28;63244;-75
2022/12/18 12:06:20;;;;;;;;;51.33;42.67;;;;;;;;5040514;28;61753;-76
2022/12/18 12:08:45;;;;;;;;;60.00;45.67;;;;;;;;5041455;28;61967;-76
2022/12/18 12:11:22;;;;;;;;;38.00;33.67;;;;;;;;5042290;28;61829;-76
2022/12/18 12:13:53;;;;;;;;;44.33;38.67;;;;;;;;5042101;28;61824;-75
2022/12/18 12:16:37;;;;;;;;;57.33;39.00;;;;;;;;5042769;28;61861;-75
2022/12/18 12:19:05;;;;;;;;;49.67;41.67;;;;;;;;5042426;28;61781;-75
2022/12/18 12:21:33;;;;;;;;;45.67;38.00;;;;;;;;5042774;28;61970;-75
2022/12/18 12:24:10;;;;;;;;;52.67;36.67;;;;;;;;5028721;28;63967;-76
2022/12/18 12:26:45;;;;;;;;;53.00;40.33;;;;;;;;5023005;28;61941;-76
2022/12/18 12:29:10;;;;;;;;;52.67;42.67;;;;;;;;5033562;28;61673;-75
2022/12/18 12:31:41;;;;;;;;;36.33;31.33;;;;;;;;5029984;28;61999;-75
2022/12/18 12:34:07;;;;;;;;;37.00;33.33;;;;;;;;5037402;28;63876;-76
2022/12/18 12:36:32;;;;;;;;;50.00;35.67;;;;;;;;5038284;28;61860;-76
2022/12/18 12:39:00;;;;;;;;;47.67;35.00;;;;;;;;5022609;28;61765;-75
2022/12/18 12:44:32;;;;;;;;;52.67;42.33;;;;;;;;5022222;28;62399;-76
2022/12/18 12:47:00;;;;;;;;;59.67;42.67;;;;;;;;5022497;28;61779;-76
2022/12/18 12:49:27;;;;;;;;;47.33;38.67;;;;;;;;5022388;28;61751;-75
2022/12/18 12:51:57;;;;;;;;;45.00;39.33;;;;;;;;5038053;28;61738;-76
2022/12/18 12:54:24;;;;;;;;;51.33;40.00;;;;;;;;5037317;28;63847;-76
2022/12/18 12:57:28;;;;;;;;;46.00;37.33;;;;;;;;5022154;28;62010;-76
2022/12/18 12:59:59;;;;;;;;;48.00;39.33;;;;;;;;4960975;28;61888;-75
2022/12/18 13:02:35;;;;;;;;;51.67;40.67;;;;;;;;4961108;28;62030;-76
2022/12/18 13:05:03;;;;;;;;;36.67;32.00;;;;;;;;4960204;28;62125;-76
2022/12/18 13:07:46;;;;;;;;;56.33;45.33;;;;;;;;4961004;28;61801;-75
2022/12/18 13:10:19;;;;;;;;;41.67;39.33;;;;;;;;4960971;28;62093;-76
2022/12/18 13:12:56;;;;;;;;;60.67;42.00;;;;;;;;4961135;28;62049;-77
2022/12/18 13:15:23;;;;;;;;;56.33;41.67;;;;;;;;4960437;28;61786;-76
2022/12/18 13:17:48;;;;;;;;;59.67;45.33;;;;;;;;4960809;28;61885;-75
2022/12/18 13:20:15;;;;;;;;;46.67;42.00;;;;;;;;4960517;28;61925;-76
2022/12/18 13:22:50;;;;;;;;;63.00;43.67;;;;;;;;4964650;28;61847;-76
2022/12/18 13:25:41;;;;;;;;;48.67;40.67;;;;;;;;4963056;28;63932;-75
2022/12/18 13:28:12;;;;;;;;;53.33;43.33;;;;;;;;4975429;28;61937;-75
2022/12/18 13:30:40;;;;;;;;;62.67;43.33;;;;;;;;4989957;28;62181;-76
2022/12/18 13:33:16;;;;;;;;;50.67;42.00;;;;;;;;5020358;28;62382;-75
2022/12/18 13:35:41;;;;;;;;;44.33;42.00;;;;;;;;5020671;28;61740;-76
2022/12/18 13:38:20;;;;;;;;;50.00;35.00;;;;;;;;5024452;28;61736;-76
2022/12/18 13:40:45;;;;;;;;;50.33;37.33;;;;;;;;5041665;28;61936;-76
2022/12/18 13:43:20;;;;;;;;;48.33;38.67;;;;;;;;5040828;28;62001;-78
2022/12/18 13:45:47;;;;;;;;;57.33;45.67;;;;;;;;5039934;28;64794;-75
2022/12/18 13:48:17;;;;;;;;;48.33;40.67;;;;;;;;5041386;28;62046;-76
2022/12/18 13:50:42;;;;;;;;;62.00;39.33;;;;;;;;5041656;28;61710;-76
2022/12/18 13:53:16;;;;;;;;;48.67;36.67;;;;;;;;5041838;28;61687;-76
2022/12/18 13:55:44;;;;;;;;;50.67;36.67;;;;;;;;5035711;28;65259;-75
2022/12/18 13:58:11;;;;;;;;;52.33;40.33;;;;;;;;5032451;28;61903;-74
2022/12/18 14:00:40;;;;;;;;;46.67;37.00;;;;;;;;5023296;28;62669;-74
2022/12/18 14:03:15;;;;;;;;;51.67;42.33;;;;;;;;5039921;28;62067;-74
2022/12/18 14:05:44;;;;;;;;;60.67;41.67;;;;;;;;5039434;28;64003;-74
2022/12/18 14:08:14;;;;;;;;;54.67;42.00;;;;;;;;5038477;28;62429;-75
2022/12/18 14:10:44;;;;;;;;;52.00;37.67;;;;;;;;5041636;28;61852;-74
2022/12/18 14:13:10;;;;;;;;;45.33;35.00;;;;;;;;5036985;28;61816;-73
2022/12/18 14:15:39;;;;;;;;;48.67;42.00;;;;;;;;5036567;28;61903;-74
2022/12/18 14:18:22;;;;;;;;;34.67;32.00;;;;;;;;5034774;28;62236;-75
2022/12/18 14:20:50;;;;;;;;;54.00;38.00;;;;;;;;5036805;28;62065;-74
2022/12/18 14:23:34;;;;;;;;;50.67;40.67;;;;;;;;5036429;28;61840;-74
2022/12/18 14:26:00;;;;;;;;;60.67;43.00;;;;;;;;5035538;28;63472;-77
2022/12/18 14:28:26;;;;;;;;;46.33;36.67;;;;;;;;5037791;28;61755;-77